createdAt,value
2023-04-08T00:02:04.007Z,48.71
2023-04-08T00:04:43.308Z,48.73
2023-04-08T00:07:11.634Z,48.71
2023-04-08T00:09:40.426Z,48.51
2023-04-08T00:12:08.523Z,48.63
2023-04-08T00:14:38.304Z,48.58
2023-04-08T00:17:06.567Z,48.59
2023-04-08T00:19:36.141Z,48.43
2023-04-08T00:22:04.107Z,48.36
2023-04-08T00:24:32.173Z,48.43
2023-04-08T00:27:00.109Z,48.42
2023-04-08T00:29:28.219Z,48.43
2023-04-08T00:31:56.713Z,48.37
2023-04-08T00:34:24.867Z,48.26
2023-04-08T00:36:52.835Z,48.37
2023-04-08T00:39:20.575Z,48.41
2023-04-08T00:41:48.560Z,48.49
2023-04-08T00:44:17.323Z,48.50
2023-04-08T00:46:45.345Z,48.42
2023-04-08T00:49:13.227Z,48.42
2023-04-08T00:51:41.209Z,48.49
2023-04-08T00:54:08.960Z,48.38
2023-04-08T00:56:37.522Z,48.38
2023-04-08T00:59:05.958Z,48.67
2023-04-08T01:01:56.244Z,48.36
2023-04-08T01:04:44.634Z,48.61
2023-04-08T01:07:23.411Z,48.62
2023-04-08T01:10:05.888Z,48.54
2023-04-08T01:12:51.847Z,48.55
2023-04-08T01:15:20.907Z,48.67
2023-04-08T01:17:53.226Z,48.68
2023-04-08T01:20:23.830Z,48.66
2023-04-08T01:23:01.283Z,48.62
2023-04-08T01:25:35.351Z,48.71
2023-04-08T01:28:15.815Z,48.86
2023-04-08T01:30:46.125Z,48.78
2023-04-08T01:33:17.891Z,48.69
2023-04-08T01:35:47.515Z,48.74
2023-04-08T01:38:19.773Z,48.69
2023-04-08T01:40:49.647Z,48.79
2023-04-08T01:43:19.425Z,48.73
2023-04-08T01:45:48.901Z,48.55
2023-04-08T01:48:17.305Z,48.79
2023-04-08T01:50:46.192Z,48.84
2023-04-08T01:53:15.047Z,49.08
2023-04-08T01:55:45.581Z,48.92
2023-04-08T01:58:21.387Z,48.79
2023-04-08T02:00:51.678Z,48.96
2023-04-08T02:03:24.222Z,48.92
2023-04-08T02:05:52.401Z,49.03
2023-04-08T02:08:20.357Z,49.02
2023-04-08T02:10:48.513Z,49.02
2023-04-08T02:13:16.607Z,49.05
2023-04-08T02:15:56.953Z,49.13
2023-04-08T02:18:31.689Z,49.33
2023-04-08T02:21:22.738Z,49.21
2023-04-08T02:23:51.369Z,49.25
2023-04-08T02:26:21.751Z,49.51
2023-04-08T02:28:50.969Z,49.41
2023-04-08T02:31:20.574Z,49.24
2023-04-08T02:33:50.477Z,49.28
2023-04-08T02:36:18.425Z,49.46
2023-04-08T02:38:50.540Z,49.36
2023-04-08T02:41:18.676Z,49.38
2023-04-08T02:43:48.031Z,49.46
2023-04-08T02:46:16.472Z,49.46
2023-04-08T02:48:44.475Z,49.43
2023-04-08T02:51:12.364Z,49.33
2023-04-08T02:53:40.458Z,49.50
2023-04-08T02:56:11.671Z,49.47
2023-04-08T02:58:39.415Z,49.40
2023-04-08T03:01:09.000Z,49.39
2023-04-08T03:03:37.748Z,49.54
2023-04-08T03:06:06.042Z,49.38
2023-04-08T03:08:34.006Z,49.48
2023-04-08T03:11:01.815Z,49.43
2023-04-08T03:13:29.935Z,49.51
2023-04-08T03:15:57.991Z,49.43
2023-04-08T03:18:26.038Z,49.49
2023-04-08T03:20:53.899Z,49.44
2023-04-08T03:23:21.724Z,49.40
2023-04-08T03:25:49.598Z,49.33
2023-04-08T03:28:17.822Z,49.33
2023-04-08T03:30:45.988Z,49.27
2023-04-08T03:33:13.808Z,49.25
2023-04-08T03:35:41.571Z,49.22
2023-04-08T03:38:09.476Z,49.33
2023-04-08T03:40:37.232Z,49.31
2023-04-08T03:43:06.646Z,49.42
2023-04-08T03:45:34.509Z,49.40
2023-04-08T03:48:02.872Z,49.60
2023-04-08T03:50:30.693Z,49.72
2023-04-08T03:52:58.452Z,49.83
2023-04-08T03:55:26.170Z,49.94
2023-04-08T03:57:54.008Z,49.87
2023-04-08T04:00:23.347Z,49.92
2023-04-08T04:02:51.443Z,49.96
2023-04-08T04:05:21.352Z,49.95
2023-04-08T04:07:49.507Z,50.20
2023-04-08T04:10:17.490Z,50.15
2023-04-08T04:12:46.105Z,50.16
2023-04-08T04:15:14.096Z,50.29
2023-04-08T04:17:42.097Z,50.22
2023-04-08T04:20:10.940Z,50.31
2023-04-08T04:22:38.631Z,50.30
2023-04-08T04:25:07.203Z,50.22
2023-04-08T04:27:36.718Z,50.24
2023-04-08T04:30:05.701Z,50.27
2023-04-08T04:32:33.667Z,50.27
2023-04-08T04:35:01.875Z,50.31
2023-04-08T04:37:29.690Z,50.42
2023-04-08T04:39:57.569Z,50.33
2023-04-08T04:42:25.499Z,50.25
2023-04-08T04:44:54.317Z,50.18
2023-04-08T04:47:22.247Z,50.27
2023-04-08T04:49:50.383Z,50.26
2023-04-08T04:52:18.902Z,50.21
2023-04-08T04:54:46.632Z,50.33
2023-04-08T04:57:14.532Z,50.44
2023-04-08T04:59:42.364Z,50.30
2023-04-08T05:02:10.387Z,50.41
2023-04-08T05:04:38.338Z,50.56
2023-04-08T05:07:06.364Z,50.51
2023-04-08T05:09:34.170Z,50.41
2023-04-08T05:12:02.056Z,50.60
2023-04-08T05:14:30.823Z,50.48
2023-04-08T05:16:58.871Z,50.49
2023-04-08T05:19:26.812Z,50.40
2023-04-08T05:21:54.732Z,50.53
2023-04-08T05:24:22.696Z,50.42
2023-04-08T05:26:53.347Z,50.66
2023-04-08T05:29:22.036Z,50.52
2023-04-08T05:31:50.457Z,50.51
2023-04-08T05:34:23.291Z,50.39
2023-04-08T05:36:52.144Z,50.64
2023-04-08T05:39:20.368Z,50.79
2023-04-08T05:41:48.286Z,50.83
2023-04-08T05:44:16.134Z,50.91
2023-04-08T05:46:44.088Z,50.98
2023-04-08T05:49:12.306Z,50.99
2023-04-08T05:51:40.406Z,51.02
2023-04-08T05:54:08.151Z,51.09
2023-04-08T05:56:36.223Z,51.20
2023-04-08T05:59:04.130Z,51.27
2023-04-08T06:01:32.475Z,51.24
2023-04-08T06:04:00.412Z,51.26
2023-04-08T06:06:28.306Z,51.22
2023-04-08T06:08:56.450Z,51.47
2023-04-08T06:11:24.760Z,51.55
2023-04-08T06:13:52.874Z,51.45
2023-04-08T06:16:21.372Z,51.63
2023-04-08T06:18:49.790Z,51.77
2023-04-08T06:21:17.869Z,51.75
2023-04-08T06:23:45.950Z,51.73
2023-04-08T06:26:14.502Z,51.73
2023-04-08T06:28:42.345Z,51.76
2023-04-08T06:31:10.375Z,51.69
2023-04-08T06:33:38.876Z,51.63
2023-04-08T06:36:08.885Z,51.76
2023-04-08T06:38:36.825Z,51.56
2023-04-08T06:41:06.573Z,51.60
2023-04-08T06:43:36.552Z,51.36
2023-04-08T06:46:04.651Z,51.48
2023-04-08T06:48:32.750Z,51.40
2023-04-08T06:51:01.472Z,51.34
2023-04-08T06:53:31.124Z,51.21
2023-04-08T06:55:59.438Z,51.20
2023-04-08T06:58:27.416Z,51.07
2023-04-08T07:00:58.534Z,51.09
2023-04-08T07:03:26.813Z,50.98
2023-04-08T07:05:54.796Z,50.55
2023-04-08T07:08:23.056Z,50.77
2023-04-08T07:10:53.146Z,50.88
2023-04-08T07:13:21.271Z,50.77
2023-04-08T07:15:49.635Z,50.62
2023-04-08T07:18:17.889Z,50.79
2023-04-08T07:20:46.436Z,50.48
2023-04-08T07:23:14.374Z,50.34
2023-04-08T07:25:42.480Z,50.21
2023-04-08T07:28:10.568Z,50.06
2023-04-08T07:30:38.548Z,50.00
2023-04-08T07:33:09.740Z,49.92
2023-04-08T07:35:37.934Z,49.93
2023-04-08T07:38:11.413Z,49.70
2023-04-08T07:40:39.406Z,49.89
2023-04-08T07:43:09.103Z,49.78
2023-04-08T07:45:37.060Z,49.81
2023-04-08T07:48:05.388Z,49.88
2023-04-08T07:50:33.399Z,49.62
2023-04-08T07:53:01.241Z,49.70
2023-04-08T07:55:35.501Z,49.64
2023-04-08T07:58:05.835Z,49.68
2023-04-08T08:00:33.760Z,49.17
2023-04-08T08:03:01.718Z,48.76
2023-04-08T08:05:29.818Z,48.70
2023-04-08T08:07:57.598Z,48.68
2023-04-08T08:10:26.526Z,48.72
2023-04-08T08:12:54.330Z,48.58
2023-04-08T08:15:22.057Z,48.67
2023-04-08T08:17:50.030Z,48.46
2023-04-08T08:20:19.349Z,48.57
2023-04-08T08:22:56.653Z,48.43
2023-04-08T08:25:26.094Z,48.42
2023-04-08T08:27:55.442Z,48.13
2023-04-08T08:30:23.514Z,48.26
2023-04-08T08:32:52.282Z,48.22
2023-04-08T08:35:20.573Z,47.99
2023-04-08T08:37:48.949Z,47.87
2023-04-08T08:40:16.924Z,47.85
2023-04-08T08:42:52.696Z,47.10
2023-04-08T08:45:21.355Z,47.32
2023-04-08T08:47:50.943Z,47.31
2023-04-08T08:50:19.575Z,46.99
2023-04-08T08:52:52.565Z,46.68
2023-04-08T08:55:36.329Z,46.48
2023-04-08T08:58:10.054Z,46.50
2023-04-08T09:00:45.150Z,46.17
2023-04-08T09:03:28.966Z,45.28
2023-04-08T09:06:02.013Z,45.35
2023-04-08T09:08:35.982Z,44.98
2023-04-08T09:11:16.241Z,44.57
2023-04-08T09:13:46.217Z,44.74
2023-04-08T09:16:19.797Z,44.29
2023-04-08T09:18:49.394Z,44.11
2023-04-08T09:21:18.326Z,43.97
2023-04-08T09:23:53.279Z,43.51
2023-04-08T09:26:24.650Z,43.58
2023-04-08T09:29:14.270Z,42.84
2023-04-08T09:31:47.571Z,43.37
2023-04-08T09:34:19.439Z,43.13
2023-04-08T09:36:49.122Z,42.98
2023-04-08T09:39:17.459Z,42.68
2023-04-08T09:41:52.162Z,42.54
2023-04-08T09:44:26.754Z,42.23
2023-04-08T09:47:05.785Z,41.90
2023-04-08T09:49:49.957Z,41.77
2023-04-08T09:52:24.321Z,42.07
2023-04-08T09:55:09.157Z,41.53
2023-04-08T09:57:58.843Z,41.49
2023-04-08T10:00:43.864Z,41.59
2023-04-08T10:03:51.841Z,40.94
2023-04-08T10:06:22.141Z,41.00
2023-04-08T10:08:50.888Z,41.00
2023-04-08T10:11:18.909Z,40.75
2023-04-08T10:13:48.307Z,40.41
2023-04-08T10:16:19.965Z,40.56
2023-04-08T10:18:51.093Z,40.78
2023-04-08T10:21:47.971Z,40.00
2023-04-08T10:24:15.857Z,40.21
2023-04-08T10:26:45.784Z,39.53
2023-04-08T10:29:19.892Z,39.03
2023-04-08T10:31:53.558Z,38.71
2023-04-08T10:34:53.600Z,38.51
2023-04-08T10:37:42.403Z,38.35
2023-04-08T10:40:38.959Z,37.85
2023-04-08T10:43:07.452Z,38.04
2023-04-08T10:45:36.144Z,37.81
2023-04-08T10:48:29.501Z,37.40
2023-04-08T10:51:02.865Z,37.50
2023-04-08T10:53:36.879Z,37.52
2023-04-08T10:56:17.468Z,37.05
2023-04-08T10:59:04.795Z,36.84
2023-04-08T11:01:41.353Z,36.97
2023-04-08T11:04:19.405Z,36.88
2023-04-08T11:06:47.616Z,36.83
2023-04-08T11:09:19.582Z,36.39
2023-04-08T11:11:47.504Z,36.21
2023-04-08T11:14:17.401Z,36.36
2023-04-08T11:16:45.966Z,36.29
2023-04-08T11:19:14.503Z,35.98
2023-04-08T11:21:43.223Z,35.98
2023-04-08T11:24:13.341Z,35.74
2023-04-08T11:26:42.128Z,35.58
2023-04-08T11:29:14.768Z,35.65
2023-04-08T11:31:44.299Z,35.90
2023-04-08T11:34:12.886Z,35.91
2023-04-08T11:36:41.601Z,35.57
2023-04-08T11:39:12.221Z,35.36
2023-04-08T11:41:40.758Z,35.60
2023-04-08T11:44:08.839Z,35.79
2023-04-08T11:46:37.178Z,36.07
2023-04-08T11:49:08.353Z,35.93
2023-04-08T11:51:59.182Z,36.04
2023-04-08T11:54:33.017Z,36.24
2023-04-08T11:57:03.017Z,36.27
2023-04-08T11:59:31.277Z,35.75
2023-04-08T12:01:59.457Z,35.92
2023-04-08T12:04:27.768Z,35.90
2023-04-08T12:06:58.508Z,35.41
2023-04-08T12:09:27.368Z,35.60
2023-04-08T12:11:59.280Z,35.67
2023-04-08T12:14:28.380Z,35.72
2023-04-08T12:16:56.344Z,35.38
2023-04-08T12:19:24.924Z,35.23
2023-04-08T12:21:52.909Z,35.10
2023-04-08T12:24:21.399Z,35.16
2023-04-08T12:26:49.374Z,35.15
2023-04-08T12:29:17.229Z,35.08
2023-04-08T12:31:45.470Z,35.24
2023-04-08T12:34:13.382Z,34.88
2023-04-08T12:36:42.009Z,34.52
2023-04-08T12:39:10.155Z,34.56
2023-04-08T12:41:38.034Z,34.63
2023-04-08T12:44:06.614Z,34.35
2023-04-08T12:46:34.453Z,34.45
2023-04-08T12:49:04.910Z,34.15
2023-04-08T12:51:34.223Z,35.02
2023-04-08T12:54:03.974Z,34.59
2023-04-08T12:56:32.896Z,34.51
2023-04-08T12:59:01.374Z,34.21
2023-04-08T13:01:30.887Z,34.09
2023-04-08T13:03:59.127Z,33.48
2023-04-08T13:06:27.798Z,33.39
2023-04-08T13:08:55.934Z,33.24
2023-04-08T13:11:24.509Z,33.29
2023-04-08T13:13:52.873Z,33.11
2023-04-08T13:16:22.016Z,33.48
2023-04-08T13:18:50.281Z,33.53
2023-04-08T13:21:18.418Z,33.32
2023-04-08T13:23:47.030Z,33.43
2023-04-08T13:26:15.269Z,33.30
2023-04-08T13:28:56.034Z,33.18
2023-04-08T13:31:25.996Z,33.25
2023-04-08T13:34:13.135Z,33.25
2023-04-08T13:36:40.846Z,33.33
2023-04-08T13:39:08.577Z,33.49
2023-04-08T13:41:36.394Z,33.38
2023-04-08T13:44:04.184Z,33.16
2023-04-08T13:46:31.961Z,33.23
2023-04-08T13:48:59.738Z,33.42
2023-04-08T13:51:27.585Z,33.28
2023-04-08T13:53:55.420Z,33.31
2023-04-08T13:56:23.298Z,33.43
2023-04-08T13:58:57.134Z,33.50
2023-04-08T14:01:26.147Z,33.61
2023-04-08T14:03:54.022Z,33.70
2023-04-08T14:06:22.055Z,33.89
2023-04-08T14:08:51.001Z,33.84
2023-04-08T14:11:19.132Z,34.03
2023-04-08T14:13:47.145Z,34.11
2023-04-08T14:16:16.650Z,34.08
2023-04-08T14:18:44.439Z,34.13
2023-04-08T14:21:14.176Z,34.57
2023-04-08T14:23:42.032Z,34.57
2023-04-08T14:26:10.195Z,34.71
2023-04-08T14:28:39.782Z,34.56
2023-04-08T14:31:07.893Z,34.48
2023-04-08T14:33:36.149Z,34.82
2023-04-08T14:36:05.312Z,34.61
2023-04-08T14:38:33.368Z,34.76
2023-04-08T14:41:01.871Z,34.59
2023-04-08T14:43:29.777Z,34.80
2023-04-08T14:45:58.018Z,34.44
2023-04-08T14:48:31.721Z,34.57
2023-04-08T14:51:01.172Z,34.70
2023-04-08T14:53:29.438Z,34.66
2023-04-08T14:55:57.193Z,34.40
2023-04-08T14:58:25.379Z,34.51
2023-04-08T15:00:53.201Z,34.41
2023-04-08T15:03:21.142Z,34.14
2023-04-08T15:05:59.752Z,34.34
2023-04-08T15:08:28.471Z,34.28
2023-04-08T15:10:56.989Z,34.29
2023-04-08T15:13:24.755Z,34.33
2023-04-08T15:15:52.523Z,34.63
2023-04-08T15:18:20.822Z,34.56
2023-04-08T15:20:48.793Z,34.64
2023-04-08T15:23:18.381Z,34.53
2023-04-08T15:25:46.426Z,34.66
2023-04-08T15:28:14.532Z,34.49
2023-04-08T15:30:43.904Z,34.74
2023-04-08T15:33:12.504Z,34.76
2023-04-08T15:35:40.750Z,34.79
2023-04-08T15:38:08.601Z,34.76
2023-04-08T15:40:37.924Z,34.90
2023-04-08T15:43:06.773Z,34.88
2023-04-08T15:45:34.532Z,34.94
2023-04-08T15:48:03.583Z,34.80
2023-04-08T15:50:32.513Z,35.14
2023-04-08T15:53:00.466Z,35.03
2023-04-08T15:55:28.263Z,35.24
2023-04-08T15:57:58.030Z,35.21
2023-04-08T16:00:26.190Z,35.03
2023-04-08T16:02:54.212Z,35.11
2023-04-08T16:05:22.232Z,35.32
2023-04-08T16:07:50.323Z,35.31
2023-04-08T16:10:18.443Z,35.31
2023-04-08T16:12:46.315Z,35.41
2023-04-08T16:15:14.138Z,35.54
2023-04-08T16:17:42.050Z,35.52
2023-04-08T16:20:10.790Z,35.66
2023-04-08T16:22:38.685Z,35.91
2023-04-08T16:25:08.295Z,35.87
2023-04-08T16:27:38.806Z,36.06
2023-04-08T16:30:07.675Z,35.97
2023-04-08T16:32:35.865Z,36.07
2023-04-08T16:35:03.899Z,36.33
2023-04-08T16:37:32.462Z,36.17
2023-04-08T16:40:00.470Z,36.23
2023-04-08T16:42:28.588Z,36.25
2023-04-08T16:44:59.888Z,36.37
2023-04-08T16:47:28.841Z,36.46
2023-04-08T16:49:56.706Z,36.62
2023-04-08T16:52:26.826Z,36.77
2023-04-08T16:54:54.721Z,36.67
2023-04-08T16:57:22.557Z,36.72
2023-04-08T16:59:50.578Z,36.84
2023-04-08T17:02:38.514Z,37.01
2023-04-08T17:05:06.740Z,37.07
2023-04-08T17:07:56.575Z,37.18
2023-04-08T17:10:24.872Z,37.08
2023-04-08T17:12:53.517Z,37.12
2023-04-08T17:15:21.666Z,37.22
2023-04-08T17:17:49.641Z,37.24
2023-04-08T17:20:17.737Z,37.04
2023-04-08T17:22:48.367Z,36.94
2023-04-08T17:25:16.412Z,36.96
2023-04-08T17:27:44.131Z,36.87
2023-04-08T17:30:12.390Z,36.86
2023-04-08T17:32:40.273Z,36.88
2023-04-08T17:35:08.964Z,37.02
2023-04-08T17:37:51.805Z,36.92
2023-04-08T17:40:19.725Z,36.89
2023-04-08T17:42:47.646Z,36.88
2023-04-08T17:45:18.251Z,36.77
2023-04-08T17:47:46.149Z,36.86
2023-04-08T17:50:16.452Z,36.90
2023-04-08T17:52:48.358Z,36.96
2023-04-08T17:55:19.490Z,36.98
2023-04-08T17:57:47.547Z,37.02
2023-04-08T18:00:15.978Z,37.20
2023-04-08T18:02:44.324Z,37.18
2023-04-08T18:05:13.176Z,37.16
2023-04-08T18:07:41.380Z,37.24
2023-04-08T18:10:09.628Z,37.34
2023-04-08T18:12:37.854Z,37.36
2023-04-08T18:15:07.724Z,37.26
2023-04-08T18:17:35.636Z,37.33
2023-04-08T18:20:04.479Z,37.39
2023-04-08T18:22:32.561Z,37.32
2023-04-08T18:25:00.463Z,37.50
2023-04-08T18:27:28.566Z,37.65
2023-04-08T18:29:56.556Z,37.61
2023-04-08T18:32:24.514Z,37.77
2023-04-08T18:34:53.417Z,37.71
2023-04-08T18:37:21.738Z,37.86
2023-04-08T18:39:49.960Z,37.90
2023-04-08T18:42:21.008Z,37.93
2023-04-08T18:44:51.579Z,37.85
2023-04-08T18:47:20.098Z,38.10
2023-04-08T18:49:48.250Z,37.98
2023-04-08T18:52:16.112Z,37.97
2023-04-08T18:54:47.759Z,38.14
2023-04-08T18:57:16.746Z,38.00
2023-04-08T18:59:48.453Z,38.12
2023-04-08T19:02:16.657Z,38.21
2023-04-08T19:04:44.621Z,38.14
2023-04-08T19:07:12.614Z,38.13
2023-04-08T19:09:40.903Z,38.24
2023-04-08T19:12:09.456Z,38.26
2023-04-08T19:14:37.490Z,38.32
2023-04-08T19:17:05.586Z,38.33
2023-04-08T19:19:33.702Z,38.29
2023-04-08T19:22:05.737Z,38.38
2023-04-08T19:24:34.834Z,38.42
2023-04-08T19:27:02.617Z,38.34
2023-04-08T19:29:32.531Z,38.42
2023-04-08T19:32:00.596Z,38.44
2023-04-08T19:34:29.935Z,38.41
2023-04-08T19:36:57.880Z,38.42
2023-04-08T19:39:28.085Z,38.51
2023-04-08T19:41:58.472Z,38.71
2023-04-08T19:44:27.845Z,38.74
2023-04-08T19:46:57.590Z,38.84
2023-04-08T19:49:25.779Z,39.00
2023-04-08T19:51:53.986Z,38.99
2023-04-08T19:54:22.778Z,39.18
2023-04-08T19:56:50.942Z,39.08
2023-04-08T19:59:20.859Z,39.25
2023-04-08T20:01:48.891Z,39.41
2023-04-08T20:04:17.198Z,39.39
2023-04-08T20:06:45.031Z,39.44
2023-04-08T20:09:14.454Z,39.55
2023-04-08T20:11:42.363Z,39.38
2023-04-08T20:14:10.394Z,39.50
2023-04-08T20:16:38.277Z,39.62
2023-04-08T20:19:07.474Z,39.44
2023-04-08T20:21:35.704Z,39.44
2023-04-08T20:24:03.844Z,39.52
2023-04-08T20:26:31.810Z,39.48
2023-04-08T20:28:59.662Z,39.50
2023-04-08T20:31:28.186Z,39.50
2023-04-08T20:33:56.555Z,39.49
2023-04-08T20:36:25.192Z,39.54
2023-04-08T20:38:53.423Z,39.53
2023-04-08T20:41:23.341Z,39.51
2023-04-08T20:43:52.817Z,39.49
2023-04-08T20:46:20.990Z,39.46
2023-04-08T20:48:49.392Z,39.64
2023-04-08T20:51:17.521Z,39.53
2023-04-08T20:53:45.905Z,39.47
2023-04-08T20:56:13.736Z,39.64
2023-04-08T20:58:41.621Z,39.72
2023-04-08T21:01:09.741Z,39.62
2023-04-08T21:03:37.660Z,39.49
2023-04-08T21:06:07.452Z,39.60
2023-04-08T21:08:35.260Z,39.51
2023-04-08T21:11:03.466Z,39.72
2023-04-08T21:13:31.252Z,39.63
2023-04-08T21:15:59.317Z,39.78
2023-04-08T21:18:27.157Z,39.78
2023-04-08T21:20:54.959Z,39.71
2023-04-08T21:23:22.823Z,39.77
2023-04-08T21:25:51.936Z,39.81
2023-04-08T21:28:19.671Z,40.01
2023-04-08T21:30:47.732Z,40.00
2023-04-08T21:33:15.697Z,40.05
2023-04-08T21:35:43.774Z,40.01
2023-04-08T21:38:11.570Z,39.94
2023-04-08T21:40:41.187Z,40.10
2023-04-08T21:43:09.354Z,40.25
2023-04-08T21:45:37.194Z,40.08
2023-04-08T21:48:05.696Z,39.98
2023-04-08T21:50:33.500Z,40.16
2023-04-08T21:53:02.229Z,40.28
2023-04-08T21:55:30.453Z,40.24
2023-04-08T21:57:58.641Z,40.34
2023-04-08T22:00:26.722Z,40.36
2023-04-08T22:02:56.418Z,40.20
2023-04-08T22:05:24.418Z,40.18
2023-04-08T22:07:52.944Z,40.30
2023-04-08T22:10:21.053Z,40.48
2023-04-08T22:12:49.395Z,40.52
2023-04-08T22:15:17.519Z,40.42
2023-04-08T22:17:45.325Z,40.46
2023-04-08T22:20:13.112Z,40.42
2023-04-08T22:22:40.942Z,40.44
2023-04-08T22:25:09.371Z,40.55
2023-04-08T22:27:37.393Z,40.74
2023-04-08T22:30:08.103Z,40.71
2023-04-08T22:32:37.454Z,40.71
2023-04-08T22:35:06.533Z,40.60
2023-04-08T22:37:34.337Z,40.71
2023-04-08T22:40:02.801Z,40.68
2023-04-08T22:42:30.710Z,40.83
2023-04-08T22:44:58.615Z,40.76
2023-04-08T22:47:26.608Z,40.81
2023-04-08T22:49:54.451Z,40.87
2023-04-08T22:52:22.402Z,40.92
2023-04-08T22:54:50.258Z,40.80
2023-04-08T22:57:17.994Z,40.81
2023-04-08T22:59:46.033Z,41.03
2023-04-08T23:02:13.964Z,41.06
2023-04-08T23:04:41.766Z,40.90
2023-04-08T23:07:09.625Z,41.00
2023-04-08T23:09:37.590Z,41.02
2023-04-08T23:12:05.541Z,41.18
2023-04-08T23:14:33.355Z,41.17
2023-04-08T23:17:05.578Z,41.25
2023-04-08T23:19:33.931Z,41.30
2023-04-08T23:22:01.722Z,41.20
2023-04-08T23:24:30.339Z,41.21
2023-04-08T23:26:58.718Z,41.22
2023-04-08T23:29:26.770Z,41.17
2023-04-08T23:31:54.520Z,41.29
2023-04-08T23:34:22.481Z,41.11
2023-04-08T23:36:50.421Z,41.15
2023-04-08T23:39:20.317Z,41.15
2023-04-08T23:41:48.248Z,41.05
2023-04-08T23:44:16.322Z,41.07
2023-04-08T23:46:44.299Z,41.02
2023-04-08T23:49:12.213Z,41.03
2023-04-08T23:51:40.101Z,40.90
2023-04-08T23:54:08.105Z,41.06
2023-04-08T23:56:35.798Z,41.13
2023-04-08T23:59:03.769Z,40.83
